Terminal Aerodrome Forecast
Issued by NWS Rapid City, SD

Home | Current Version | Previous Version | Text Only | Print | Product List | Glossary Off
Versions: 1 2 3 4 5 6 7 8 9 10 11 12 13 14 15 16 17 18 19

000
FTUS43 KUNR 171730
TAFRAP
TAF
KRAP 171730Z 1718/1818 32005KT P6SM OVC040
     FM172200 36012KT 5SM -SN OVC020
     FM180300 30005KT P6SM SCT025 OVC040
     FM180600 33019KT P6SM SCT030=

USA.gov is the U.S. government's official web portal to all federal, state and local government web resources and services.